createdAt,value
2022-08-07T00:00:44.895Z,0.00
2022-08-07T00:02:41.084Z,0.00
2022-08-07T00:02:45.871Z,0.00
2022-08-07T00:03:47.540Z,0.00
2022-08-07T00:04:45.347Z,0.00
2022-08-07T00:05:44.837Z,0.00
2022-08-07T00:06:51.933Z,0.00
2022-08-07T00:07:45.810Z,0.00
2022-08-07T00:08:44.799Z,0.00
2022-08-07T00:10:04.648Z,0.00
2022-08-07T00:10:48.146Z,0.00
2022-08-07T00:11:54.011Z,0.00
2022-08-07T00:13:00.115Z,0.00
2022-08-07T00:13:45.757Z,0.00
2022-08-07T00:14:44.759Z,0.00
2022-08-07T00:15:46.325Z,0.00
2022-08-07T00:16:45.710Z,0.00
2022-08-07T00:17:44.711Z,0.00
2022-08-07T00:18:44.689Z,0.00
2022-08-07T00:20:01.274Z,0.00
2022-08-07T00:20:45.691Z,0.00
2022-08-07T00:21:56.569Z,0.00
2022-08-07T00:22:51.709Z,0.00
2022-08-07T00:23:45.636Z,0.00
2022-08-07T00:24:44.657Z,0.00
2022-08-07T00:25:46.012Z,0.00
2022-08-07T00:26:58.725Z,0.00
2022-08-07T00:27:52.592Z,0.00
2022-08-07T00:28:55.313Z,0.00
2022-08-07T00:29:45.590Z,0.00
2022-08-07T00:30:44.583Z,0.00
2022-08-07T00:31:44.550Z,0.00
2022-08-07T00:32:45.551Z,0.00
2022-08-07T00:33:47.443Z,0.00
2022-08-07T00:34:44.513Z,0.00
2022-08-07T00:35:49.715Z,0.00
2022-08-07T00:36:45.492Z,0.00
2022-08-07T00:37:48.411Z,0.00
2022-08-07T00:38:44.474Z,0.00
2022-08-07T00:39:44.829Z,0.00
2022-08-07T00:40:44.483Z,0.00
2022-08-07T00:41:45.379Z,0.00
2022-08-07T00:42:45.430Z,0.00
2022-08-07T00:44:02.061Z,0.00
2022-08-07T00:44:45.403Z,0.00
2022-08-07T00:45:46.450Z,0.00
2022-08-07T00:46:44.383Z,0.00
2022-08-07T00:48:08.218Z,0.00
2022-08-07T00:48:45.365Z,0.00
2022-08-07T00:50:21.131Z,0.00
2022-08-07T00:50:51.092Z,0.00
2022-08-07T00:51:57.318Z,0.00
2022-08-07T00:52:47.371Z,0.00
2022-08-07T00:53:50.689Z,0.00
2022-08-07T00:54:45.293Z,0.00
2022-08-07T00:56:00.698Z,0.00
2022-08-07T00:56:45.293Z,0.00
2022-08-07T00:57:44.435Z,0.00
2022-08-07T00:58:46.872Z,0.00
2022-08-07T00:59:44.243Z,0.00
2022-08-07T01:00:53.413Z,0.00
2022-08-07T01:01:45.297Z,0.00
2022-08-07T01:02:44.204Z,0.00
2022-08-07T01:03:56.660Z,0.00
2022-08-07T01:04:45.183Z,0.00
2022-08-07T01:05:51.703Z,0.00
2022-08-07T01:06:45.156Z,0.00
2022-08-07T01:07:44.165Z,0.00
2022-08-07T01:08:53.532Z,0.00
2022-08-07T01:10:06.171Z,0.00
2022-08-07T01:10:47.684Z,0.00
2022-08-07T01:12:55.336Z,0.00
2022-08-07T01:13:55.984Z,0.00
2022-08-07T01:14:57.081Z,0.00
2022-08-07T01:16:05.132Z,0.00
2022-08-07T01:16:56.295Z,0.00
2022-08-07T01:17:55.256Z,0.00
2022-08-07T01:18:55.246Z,0.00
2022-08-07T01:19:55.229Z,0.00
2022-08-07T01:20:57.524Z,0.00
2022-08-07T01:21:55.639Z,0.00
2022-08-07T01:23:12.338Z,0.00
2022-08-07T01:23:56.188Z,0.00
2022-08-07T01:24:55.178Z,0.00
2022-08-07T01:25:56.453Z,0.00
2022-08-07T01:26:55.165Z,0.00
2022-08-07T01:27:55.171Z,0.00
2022-08-07T01:28:55.137Z,0.00
2022-08-07T01:29:55.143Z,0.00
2022-08-07T01:30:55.126Z,0.00
2022-08-07T01:31:55.109Z,0.00
2022-08-07T01:32:55.119Z,0.00
2022-08-07T01:33:57.600Z,0.00
2022-08-07T01:34:55.070Z,0.00
2022-08-07T01:36:06.270Z,0.00
2022-08-07T01:36:57.930Z,0.00
2022-08-07T01:37:55.069Z,0.00
2022-08-07T01:38:55.031Z,0.00
2022-08-07T01:39:55.051Z,0.00
2022-08-07T01:40:55.007Z,0.00
2022-08-07T01:42:07.350Z,0.00
2022-08-07T01:42:58.812Z,0.00
2022-08-07T01:43:54.991Z,0.00
2022-08-07T01:44:54.970Z,0.00
2022-08-07T01:45:54.957Z,0.00
2022-08-07T01:46:54.959Z,0.00
2022-08-07T01:48:29.490Z,0.00
2022-08-07T01:48:55.919Z,0.00
2022-08-07T01:49:54.935Z,0.00
2022-08-07T01:50:55.541Z,0.00
2022-08-07T01:52:03.211Z,0.00
2022-08-07T01:52:55.879Z,0.00
2022-08-07T01:54:12.325Z,0.00
2022-08-07T01:54:55.863Z,0.00
2022-08-07T01:55:54.838Z,0.00
2022-08-07T01:56:55.152Z,0.00
2022-08-07T01:58:06.444Z,0.00
2022-08-07T01:58:55.810Z,0.00
2022-08-07T01:59:54.802Z,0.00
2022-08-07T02:01:09.273Z,0.00
2022-08-07T02:01:59.634Z,0.00
2022-08-07T02:03:18.207Z,0.00
2022-08-07T02:03:55.813Z,0.00
2022-08-07T02:04:56.057Z,0.00
2022-08-07T02:05:59.996Z,0.00
2022-08-07T02:06:55.713Z,0.00
2022-08-07T02:07:54.701Z,0.00
2022-08-07T02:08:54.693Z,0.00
2022-08-07T02:09:58.783Z,0.00
2022-08-07T02:10:55.314Z,0.00
2022-08-07T02:12:03.736Z,0.00
2022-08-07T02:12:55.670Z,0.00
2022-08-07T02:13:57.218Z,0.00
2022-08-07T02:14:55.623Z,0.00
2022-08-07T02:15:54.613Z,0.00
2022-08-07T02:16:54.604Z,0.00
2022-08-07T02:17:54.614Z,0.00
2022-08-07T02:18:54.586Z,0.00
2022-08-07T02:20:06.993Z,0.00
2022-08-07T02:20:55.802Z,0.00
2022-08-07T02:21:55.245Z,0.00
2022-08-07T02:22:55.125Z,0.00
2022-08-07T02:23:54.524Z,0.00
2022-08-07T02:24:54.515Z,0.00
2022-08-07T02:26:31.576Z,0.00
2022-08-07T02:26:55.496Z,0.00
2022-08-07T02:27:54.508Z,0.00
2022-08-07T02:28:54.468Z,0.00
2022-08-07T02:29:55.107Z,0.00
2022-08-07T02:30:54.444Z,0.00
2022-08-07T02:31:54.664Z,0.00
2022-08-07T02:33:03.778Z,0.00
2022-08-07T02:34:01.814Z,0.00
2022-08-07T02:34:55.395Z,0.00
2022-08-07T02:36:28.645Z,0.00
2022-08-07T02:36:55.399Z,0.00
2022-08-07T02:37:54.367Z,0.00
2022-08-07T02:38:56.796Z,0.00
2022-08-07T02:40:11.611Z,0.00
2022-08-07T02:40:56.060Z,0.00
2022-08-07T02:41:56.471Z,0.00
2022-08-07T02:42:54.306Z,0.00
2022-08-07T02:43:54.296Z,0.00
2022-08-07T02:44:54.306Z,0.00
2022-08-07T02:45:59.235Z,0.00
2022-08-07T02:46:55.288Z,0.00
2022-08-07T02:47:54.257Z,0.00
2022-08-07T02:48:54.867Z,0.00
2022-08-07T02:49:58.932Z,0.00
2022-08-07T02:50:55.229Z,0.00
2022-08-07T02:51:54.208Z,0.00
2022-08-07T02:52:54.201Z,0.00
2022-08-07T02:53:55.211Z,0.00
2022-08-07T02:54:54.178Z,0.00
2022-08-07T02:56:02.191Z,0.00
2022-08-07T02:56:55.149Z,0.00
2022-08-07T02:57:54.167Z,0.00
2022-08-07T02:58:55.373Z,0.00
2022-08-07T02:59:55.287Z,0.00
2022-08-07T03:00:55.159Z,0.00
2022-08-07T03:01:55.368Z,0.00
2022-08-07T03:02:55.389Z,0.00
2022-08-07T03:03:54.108Z,0.00
2022-08-07T03:04:54.098Z,0.00
2022-08-07T03:05:54.049Z,0.00
2022-08-07T03:06:54.042Z,0.00
2022-08-07T03:08:07.295Z,0.00
2022-08-07T03:08:55.039Z,0.00
2022-08-07T03:09:54.038Z,0.00
2022-08-07T03:11:15.019Z,0.00
2022-08-07T03:11:57.723Z,0.00
2022-08-07T03:12:54.972Z,0.00
2022-08-07T03:13:57.513Z,0.00
2022-08-07T03:14:54.950Z,0.00
2022-08-07T03:15:56.608Z,0.00
2022-08-07T03:16:53.932Z,0.00
2022-08-07T03:17:54.385Z,0.00
2022-08-07T03:18:53.930Z,0.00
2022-08-07T03:19:55.181Z,0.00
2022-08-07T03:20:53.881Z,0.00
2022-08-07T03:21:53.871Z,0.00
2022-08-07T03:22:53.861Z,0.00
2022-08-07T03:24:19.720Z,0.00
2022-08-07T03:24:54.843Z,0.00
2022-08-07T03:25:58.333Z,4.00
2022-08-07T03:26:59.023Z,4.00
2022-08-07T03:27:59.098Z,0.00
2022-08-07T03:28:54.822Z,4.00
2022-08-07T03:29:53.782Z,4.00
2022-08-07T03:30:53.771Z,4.00
2022-08-07T03:31:53.762Z,4.00
2022-08-07T03:32:59.212Z,4.00
2022-08-07T03:33:54.742Z,8.00
2022-08-07T03:35:16.713Z,8.00
2022-08-07T03:35:54.714Z,8.00
2022-08-07T03:36:53.910Z,8.00
2022-08-07T03:37:55.112Z,12.00
2022-08-07T03:38:53.681Z,12.00
2022-08-07T03:39:59.479Z,16.00
2022-08-07T03:40:57.295Z,20.00
2022-08-07T03:41:53.653Z,20.00
2022-08-07T03:42:53.641Z,24.00
2022-08-07T03:43:57.117Z,28.00
2022-08-07T03:44:57.936Z,32.00
2022-08-07T03:45:53.623Z,36.00
2022-08-07T03:47:13.306Z,40.00
2022-08-07T03:47:54.582Z,48.00
2022-08-07T03:49:02.432Z,56.00
2022-08-07T03:49:54.575Z,60.00
2022-08-07T03:50:57.654Z,72.00
2022-08-07T03:51:55.328Z,76.00
2022-08-07T03:52:54.523Z,88.00
2022-08-07T03:54:32.802Z,96.00
2022-08-07T03:54:58.966Z,108.00
2022-08-07T03:56:03.712Z,120.00
2022-08-07T03:57:03.370Z,132.00
2022-08-07T03:58:34.960Z,148.00
2022-08-07T03:59:07.889Z,160.00
2022-08-07T04:00:02.960Z,176.00
2022-08-07T04:00:58.246Z,192.00
2022-08-07T04:01:54.494Z,208.00
2022-08-07T04:02:56.759Z,224.00
2022-08-07T04:03:55.525Z,244.00
2022-08-07T04:04:53.414Z,264.00
2022-08-07T04:05:53.386Z,284.00
2022-08-07T04:06:54.394Z,304.00
2022-08-07T04:07:53.355Z,324.00
2022-08-07T04:08:53.347Z,348.00
2022-08-07T04:09:53.335Z,368.00
2022-08-07T04:10:54.290Z,392.00
2022-08-07T04:12:26.570Z,416.00
2022-08-07T04:12:54.304Z,440.00
2022-08-07T04:14:10.806Z,464.00
2022-08-07T04:14:54.286Z,488.00
2022-08-07T04:15:53.267Z,512.00
2022-08-07T04:16:58.698Z,536.00
2022-08-07T04:18:31.043Z,560.00
2022-08-07T04:18:59.738Z,588.00
2022-08-07T04:19:55.191Z,616.00
2022-08-07T04:20:54.527Z,640.00
2022-08-07T04:22:00.191Z,664.00
2022-08-07T04:23:01.442Z,692.00
2022-08-07T04:24:06.989Z,720.00
2022-08-07T04:24:54.166Z,744.00
2022-08-07T04:25:53.156Z,768.00
2022-08-07T04:26:53.155Z,792.00
2022-08-07T04:28:00.680Z,820.00
2022-08-07T04:28:54.118Z,848.00
2022-08-07T04:30:02.230Z,872.00
2022-08-07T04:30:57.123Z,900.00
2022-08-07T04:32:03.042Z,924.00
2022-08-07T04:32:58.337Z,944.00
2022-08-07T04:33:54.970Z,968.00
2022-08-07T04:34:53.069Z,996.00
2022-08-07T04:35:53.808Z,1016.00
2022-08-07T04:36:53.045Z,1040.00
2022-08-07T04:38:03.520Z,1068.00
2022-08-07T04:38:54.015Z,1092.00
2022-08-07T04:39:53.094Z,1112.00
2022-08-07T04:40:56.892Z,1132.00
2022-08-07T04:41:52.979Z,1156.00
2022-08-07T04:42:52.980Z,1176.00
2022-08-07T04:44:11.889Z,1196.00
2022-08-07T04:44:54.445Z,1216.00
2022-08-07T04:46:00.921Z,1236.00
2022-08-07T04:47:04.800Z,1260.00
2022-08-07T04:48:01.325Z,1280.00
2022-08-07T04:48:53.937Z,1300.00
2022-08-07T04:50:03.716Z,1320.00
2022-08-07T04:50:54.079Z,1344.00
2022-08-07T04:51:52.871Z,1364.00
2022-08-07T04:52:52.933Z,1384.00
2022-08-07T04:54:05.792Z,1404.00
2022-08-07T04:54:53.870Z,1420.00
2022-08-07T04:58:12.790Z,1472.00
2022-08-07T04:58:13.161Z,1436.00
2022-08-07T04:58:16.886Z,1452.00
2022-08-07T05:00:07.772Z,1488.00
2022-08-07T05:00:11.845Z,1504.00
2022-08-07T05:00:53.815Z,1520.00
2022-08-07T05:01:52.760Z,1536.00
2022-08-07T05:02:52.752Z,1556.00
2022-08-07T05:04:07.091Z,1568.00
2022-08-07T05:04:53.765Z,1580.00
2022-08-07T05:05:57.280Z,1596.00
2022-08-07T05:06:53.078Z,1608.00
2022-08-07T05:07:55.465Z,1624.00
2022-08-07T05:09:01.540Z,1644.00
2022-08-07T05:09:53.691Z,1656.00
2022-08-07T05:10:58.397Z,1668.00
2022-08-07T05:11:57.603Z,1680.00
2022-08-07T05:12:56.227Z,1692.00
2022-08-07T05:14:53.900Z,1708.00
2022-08-07T05:15:03.228Z,1720.00
2022-08-07T05:15:53.721Z,1732.00
2022-08-07T05:16:53.132Z,1744.00
2022-08-07T05:17:55.236Z,1756.00
2022-08-07T05:18:52.573Z,1768.00
2022-08-07T05:19:52.670Z,1780.00
2022-08-07T05:20:52.550Z,1788.00
2022-08-07T05:21:59.797Z,1796.00
2022-08-07T05:22:53.573Z,1812.00
2022-08-07T05:23:52.523Z,1824.00
2022-08-07T05:24:52.543Z,1836.00
2022-08-07T05:26:13.260Z,1852.00
2022-08-07T05:26:53.485Z,1864.00
2022-08-07T05:28:16.072Z,1872.00
2022-08-07T05:28:53.464Z,1880.00
2022-08-07T05:29:52.444Z,1892.00
2022-08-07T05:30:52.655Z,1904.00
2022-08-07T05:31:53.046Z,1912.00
2022-08-07T05:32:52.412Z,1920.00
2022-08-07T05:34:04.881Z,1932.00
2022-08-07T05:34:53.391Z,1936.00
2022-08-07T05:35:52.381Z,1948.00
2022-08-07T05:36:53.007Z,1956.00
2022-08-07T05:38:08.581Z,1964.00
2022-08-07T05:39:00.644Z,1976.00
2022-08-07T05:40:17.166Z,1984.00
2022-08-07T05:40:53.346Z,1988.00
2022-08-07T05:42:02.808Z,2000.00
2022-08-07T05:42:55.865Z,2008.00
2022-08-07T05:44:08.291Z,2012.00
2022-08-07T05:45:14.269Z,2024.00
2022-08-07T05:45:56.574Z,2028.00
2022-08-07T05:46:52.255Z,2036.00
2022-08-07T05:48:01.777Z,2040.00
2022-08-07T05:48:59.077Z,2048.00
2022-08-07T05:49:53.215Z,2060.00
2022-08-07T05:50:52.205Z,2064.00
2022-08-07T05:51:52.195Z,2072.00
2022-08-07T05:52:52.222Z,2080.00
2022-08-07T05:54:12.182Z,2084.00
2022-08-07T05:54:55.780Z,2096.00
2022-08-07T05:56:03.751Z,2092.00
2022-08-07T05:56:53.142Z,2108.00
2022-08-07T05:57:52.146Z,2116.00
2022-08-07T05:58:52.783Z,2124.00
2022-08-07T05:59:57.826Z,2128.00
2022-08-07T06:00:53.097Z,2136.00
2022-08-07T06:01:52.134Z,2140.00
2022-08-07T06:02:52.077Z,2144.00
2022-08-07T06:03:56.438Z,2148.00
2022-08-07T06:04:53.093Z,2156.00
2022-08-07T06:05:56.373Z,2160.00
2022-08-07T06:06:56.650Z,2168.00
2022-08-07T06:08:13.284Z,2172.00
2022-08-07T06:08:53.021Z,2180.00
2022-08-07T06:10:05.431Z,2188.00
2022-08-07T06:10:54.674Z,2196.00
2022-08-07T06:11:51.974Z,2200.00
2022-08-07T06:12:51.967Z,2212.00
2022-08-07T06:14:12.789Z,2208.00
2022-08-07T06:14:52.941Z,2228.00
2022-08-07T06:15:51.929Z,2232.00
2022-08-07T06:16:55.974Z,2240.00
2022-08-07T06:17:55.302Z,2244.00
2022-08-07T06:18:55.732Z,2252.00
2022-08-07T06:20:03.673Z,2260.00
2022-08-07T06:22:16.733Z,2264.00
2022-08-07T06:22:16.971Z,2268.00
2022-08-07T06:23:09.394Z,2272.00
2022-08-07T06:24:45.436Z,2280.00
2022-08-07T06:24:57.657Z,2284.00
2022-08-07T06:25:54.043Z,2292.00
2022-08-07T06:26:51.809Z,2296.00
2022-08-07T06:28:01.641Z,2304.00
2022-08-07T06:28:53.025Z,2308.00
2022-08-07T06:29:51.771Z,2312.00
2022-08-07T06:30:52.955Z,2316.00
2022-08-07T06:31:51.761Z,2320.00
2022-08-07T06:32:51.757Z,2328.00
2022-08-07T06:33:51.753Z,2332.00
2022-08-07T06:34:51.722Z,2336.00
2022-08-07T06:36:12.796Z,2340.00
2022-08-07T06:36:52.709Z,2344.00
2022-08-07T06:37:52.887Z,2348.00
2022-08-07T06:40:12.954Z,2356.00
2022-08-07T06:40:16.173Z,2360.00
2022-08-07T06:40:52.927Z,2360.00
2022-08-07T06:42:03.108Z,2368.00
2022-08-07T06:42:52.639Z,2372.00
2022-08-07T06:43:59.469Z,2376.00
2022-08-07T06:44:52.621Z,2376.00
2022-08-07T06:45:51.723Z,2380.00
2022-08-07T06:46:53.596Z,2384.00
2022-08-07T06:47:57.279Z,2392.00
2022-08-07T06:48:52.604Z,2396.00
2022-08-07T06:49:58.279Z,2400.00
2022-08-07T06:50:52.553Z,2404.00
2022-08-07T06:51:51.543Z,2404.00
2022-08-07T06:52:52.892Z,2412.00
2022-08-07T06:55:28.411Z,2416.00
2022-08-07T06:55:32.699Z,2420.00
2022-08-07T06:56:01.957Z,2428.00
2022-08-07T06:56:52.486Z,2432.00
2022-08-07T06:57:54.914Z,2436.00
2022-08-07T07:00:11.591Z,2440.00
2022-08-07T07:00:13.437Z,2440.00
2022-08-07T07:00:52.703Z,2448.00
2022-08-07T07:01:51.488Z,2448.00
2022-08-07T07:02:57.222Z,2452.00
2022-08-07T07:03:57.136Z,2460.00
2022-08-07T07:04:54.924Z,2468.00
2022-08-07T07:06:03.017Z,2468.00
2022-08-07T07:07:00.264Z,2472.00
2022-08-07T07:07:59.243Z,2480.00
2022-08-07T07:08:52.346Z,2484.00
2022-08-07T07:09:51.348Z,2488.00
2022-08-07T07:10:54.892Z,2492.00
2022-08-07T07:12:07.724Z,2496.00
2022-08-07T07:14:02.750Z,2508.00
2022-08-07T07:15:03.414Z,2508.00
2022-08-07T07:16:02.492Z,2516.00
2022-08-07T07:17:02.500Z,2520.00
2022-08-07T07:18:02.472Z,2528.00
2022-08-07T07:19:11.416Z,2528.00
2022-08-07T07:20:03.453Z,2536.00
2022-08-07T07:21:02.434Z,2540.00
2022-08-07T07:22:04.800Z,2544.00
2022-08-07T07:24:09.999Z,2552.00
2022-08-07T07:24:10.062Z,2548.00
2022-08-07T07:26:30.878Z,2552.00
2022-08-07T07:26:35.471Z,2564.00
2022-08-07T07:27:03.384Z,2568.00
2022-08-07T07:28:07.547Z,2572.00
2022-08-07T07:29:56.217Z,2576.00
2022-08-07T07:30:09.836Z,2580.00
2022-08-07T07:31:03.323Z,2588.00
2022-08-07T07:32:02.335Z,2592.00
2022-08-07T07:33:02.327Z,2584.00
2022-08-07T07:34:02.286Z,2592.00
2022-08-07T07:35:03.997Z,2596.00
2022-08-07T07:36:05.316Z,2604.00
2022-08-07T07:37:05.570Z,2612.00
2022-08-07T07:38:05.831Z,2616.00
2022-08-07T07:39:02.332Z,2616.00
2022-08-07T07:40:02.278Z,2628.00
2022-08-07T07:41:02.730Z,2628.00
2022-08-07T07:42:13.231Z,2636.00
2022-08-07T07:43:15.066Z,2644.00
2022-08-07T07:44:18.051Z,2648.00
2022-08-07T07:45:03.187Z,2656.00
2022-08-07T07:46:53.684Z,2668.00
2022-08-07T07:47:15.922Z,2676.00
2022-08-07T07:48:03.167Z,2684.00
2022-08-07T07:49:09.164Z,2684.00
2022-08-07T07:50:36.106Z,2688.00
2022-08-07T07:51:03.121Z,2704.00
2022-08-07T07:52:03.331Z,2708.00
2022-08-07T07:53:02.077Z,2712.00
2022-08-07T07:54:02.071Z,2716.00
2022-08-07T07:55:03.419Z,2724.00
2022-08-07T07:56:02.048Z,2732.00
2022-08-07T07:57:02.910Z,2736.00
2022-08-07T07:58:02.019Z,2744.00
2022-08-07T07:59:02.127Z,2752.00
2022-08-07T08:00:02.124Z,2760.00
2022-08-07T08:01:02.059Z,2768.00
2022-08-07T08:02:10.707Z,2776.00
2022-08-07T08:03:05.589Z,2788.00
2022-08-07T08:04:10.909Z,2796.00
2022-08-07T08:05:02.969Z,2796.00
2022-08-07T08:06:01.932Z,2804.00
2022-08-07T08:07:02.834Z,2820.00
2022-08-07T08:08:03.084Z,2824.00
2022-08-07T08:09:01.892Z,2832.00
2022-08-07T08:10:05.279Z,2836.00
2022-08-07T08:11:01.892Z,2840.00
2022-08-07T08:12:05.265Z,2852.00
2022-08-07T08:13:02.888Z,2856.00
2022-08-07T08:14:01.846Z,2864.00
2022-08-07T08:15:01.824Z,2872.00
2022-08-07T08:16:02.842Z,2880.00
2022-08-07T08:17:32.442Z,2888.00
2022-08-07T08:18:17.182Z,2900.00
2022-08-07T08:19:17.907Z,2904.00
2022-08-07T08:20:17.859Z,2912.00
2022-08-07T08:21:02.766Z,2924.00
2022-08-07T08:22:03.642Z,2932.00
2022-08-07T08:23:01.766Z,2944.00
2022-08-07T08:24:01.733Z,2948.00
2022-08-07T08:25:09.447Z,2960.00
2022-08-07T08:26:07.006Z,2960.00
2022-08-07T08:27:01.694Z,2968.00
2022-08-07T08:28:03.958Z,2972.00
2022-08-07T08:29:01.674Z,2980.00
2022-08-07T08:30:02.884Z,2992.00
2022-08-07T08:31:01.653Z,3000.00
2022-08-07T08:32:17.879Z,3008.00
2022-08-07T08:33:03.010Z,3012.00
2022-08-07T08:34:01.648Z,3024.00
2022-08-07T08:35:01.606Z,3032.00
2022-08-07T08:36:01.595Z,3048.00
2022-08-07T08:37:01.587Z,3060.00
2022-08-07T08:38:04.720Z,3076.00
2022-08-07T08:39:02.433Z,3088.00
2022-08-07T08:40:01.640Z,3100.00
2022-08-07T08:41:02.841Z,3112.00
2022-08-07T08:42:01.529Z,3124.00
2022-08-07T08:43:01.517Z,3136.00
2022-08-07T08:44:01.509Z,3144.00
2022-08-07T08:45:01.518Z,3156.00
2022-08-07T08:46:01.490Z,3176.00
2022-08-07T08:47:01.478Z,3184.00
2022-08-07T08:48:01.467Z,3196.00
2022-08-07T08:49:01.450Z,3208.00
2022-08-07T08:50:04.756Z,3220.00
2022-08-07T08:51:03.282Z,3232.00
2022-08-07T08:52:14.280Z,3244.00
2022-08-07T08:53:02.402Z,3260.00
2022-08-07T08:54:01.401Z,3276.00
2022-08-07T08:55:01.409Z,3292.00
2022-08-07T08:56:02.375Z,3304.00
2022-08-07T08:57:01.361Z,3320.00
2022-08-07T08:58:01.352Z,3328.00
2022-08-07T08:59:06.401Z,3340.00
2022-08-07T09:00:02.351Z,3348.00
2022-08-07T09:01:01.355Z,3356.00
2022-08-07T09:02:02.374Z,3372.00
2022-08-07T09:03:01.293Z,3384.00
2022-08-07T09:04:02.283Z,3404.00
2022-08-07T09:05:01.275Z,3416.00
2022-08-07T09:06:01.286Z,3436.00
2022-08-07T09:07:01.246Z,3448.00
2022-08-07T09:08:01.243Z,3464.00
2022-08-07T09:09:01.224Z,3480.00
2022-08-07T09:10:03.199Z,3492.00
2022-08-07T09:11:01.224Z,3504.00
2022-08-07T09:12:20.159Z,3520.00
2022-08-07T09:13:02.189Z,3536.00
2022-08-07T09:14:01.175Z,3556.00
2022-08-07T09:15:01.163Z,3576.00
2022-08-07T09:16:24.319Z,3604.00
2022-08-07T09:17:02.135Z,3628.00
2022-08-07T09:18:08.743Z,3652.00
2022-08-07T09:19:03.442Z,3680.00
2022-08-07T09:20:02.107Z,3736.00
2022-08-07T09:21:02.095Z,3808.00
2022-08-07T09:22:36.761Z,3832.00
2022-08-07T09:24:32.611Z,3852.00
2022-08-07T09:24:33.423Z,3832.00
2022-08-07T09:25:07.124Z,3848.00
2022-08-07T09:26:02.038Z,3868.00
2022-08-07T09:27:04.634Z,3944.00
2022-08-07T09:28:03.120Z,4088.00
2022-08-07T09:30:01.792Z,4300.00
2022-08-07T09:30:08.425Z,4432.00
2022-08-07T09:31:02.883Z,4576.00
2022-08-07T09:32:00.979Z,4628.00
2022-08-07T09:33:05.661Z,4688.00
2022-08-07T09:34:01.951Z,4780.00
2022-08-07T09:35:04.611Z,4872.00
2022-08-07T09:36:05.573Z,4904.00
2022-08-07T09:37:00.920Z,4676.00
2022-08-07T09:38:00.911Z,4408.00
2022-08-07T09:39:11.315Z,4464.00
2022-08-07T09:40:01.956Z,4660.00
2022-08-07T09:41:00.880Z,4808.00
2022-08-07T09:42:04.133Z,4728.00
2022-08-07T09:43:01.853Z,4756.00
2022-08-07T09:44:06.914Z,4832.00
2022-08-07T09:47:27.671Z,4824.00
2022-08-07T09:47:42.457Z,4732.00
2022-08-07T09:47:51.763Z,4912.00
2022-08-07T09:48:05.186Z,4700.00
2022-08-07T09:50:00.574Z,4740.00
2022-08-07T09:50:18.620Z,4716.00
2022-08-07T09:51:01.784Z,4736.00
2022-08-07T09:52:09.954Z,4824.00
2022-08-07T09:53:01.766Z,4952.00
2022-08-07T09:54:02.875Z,5060.00
2022-08-07T09:55:00.714Z,5192.00
2022-08-07T09:56:03.580Z,5256.00
2022-08-07T09:57:00.696Z,5252.00
2022-08-07T09:58:00.694Z,5264.00
2022-08-07T09:59:00.697Z,5280.00
2022-08-07T10:00:01.805Z,5104.00
2022-08-07T10:01:00.657Z,4920.00
2022-08-07T10:02:00.645Z,4840.00
2022-08-07T10:03:07.954Z,4844.00
2022-08-07T10:04:05.293Z,4968.00
2022-08-07T10:05:12.586Z,5180.00
2022-08-07T10:06:02.854Z,5332.00
2022-08-07T10:07:00.588Z,5472.00
2022-08-07T10:08:01.039Z,5544.00
2022-08-07T10:09:00.587Z,5572.00
2022-08-07T10:10:02.917Z,5632.00
2022-08-07T10:11:59.203Z,5676.00
2022-08-07T10:12:11.766Z,5736.00
2022-08-07T10:13:01.530Z,5776.00
2022-08-07T10:14:02.326Z,5932.00
2022-08-07T10:15:00.506Z,6088.00
2022-08-07T10:16:00.490Z,6216.00
2022-08-07T10:17:00.892Z,6396.00
2022-08-07T10:18:03.227Z,6692.00
2022-08-07T10:19:00.466Z,6940.00
2022-08-07T10:20:00.469Z,7136.00
2022-08-07T10:21:00.434Z,7460.00
2022-08-07T10:22:15.600Z,7756.00
2022-08-07T10:23:01.412Z,8016.00
2022-08-07T10:24:05.005Z,8308.00
2022-08-07T10:25:01.413Z,8944.00
2022-08-07T10:26:00.561Z,9612.00
2022-08-07T10:27:00.372Z,9896.00
2022-08-07T10:28:00.355Z,10024.00
2022-08-07T10:29:00.355Z,10208.00
2022-08-07T10:30:00.336Z,10576.00
2022-08-07T10:31:00.345Z,10472.00
2022-08-07T10:32:01.351Z,6896.00
2022-08-07T10:33:00.327Z,8192.00
2022-08-07T10:34:05.769Z,10060.00
2022-08-07T10:35:01.286Z,9496.00
2022-08-07T10:36:05.467Z,13004.00
2022-08-07T10:37:03.905Z,14436.00
2022-08-07T10:38:21.034Z,33888.00
2022-08-07T10:39:01.292Z,43008.00
2022-08-07T10:40:05.104Z,66368.00
2022-08-07T10:41:01.248Z,35104.00
2022-08-07T10:42:09.113Z,77920.00
2022-08-07T10:43:01.203Z,26976.00
2022-08-07T10:44:02.348Z,79264.00
2022-08-07T10:45:01.178Z,73760.00
2022-08-07T10:46:00.160Z,9204.00
2022-08-07T10:47:00.183Z,10928.00
2022-08-07T10:48:03.515Z,9548.00
2022-08-07T10:49:00.132Z,9972.00
2022-08-07T10:50:00.132Z,10244.00
2022-08-07T10:51:00.111Z,12812.00
2022-08-07T10:52:13.128Z,75872.00
2022-08-07T10:53:05.266Z,88672.00
2022-08-07T10:54:01.072Z,81504.00
2022-08-07T10:55:07.824Z,86624.00
2022-08-07T10:56:02.462Z,86080.00
2022-08-07T10:57:00.062Z,82816.00
2022-08-07T10:58:00.068Z,83264.00
2022-08-07T10:59:00.275Z,82624.00
2022-08-07T11:00:00.025Z,82400.00
2022-08-07T11:01:00.017Z,83008.00
2022-08-07T11:02:05.132Z,84768.00
2022-08-07T11:03:01.137Z,86240.00
2022-08-07T11:04:23.353Z,87776.00
2022-08-07T11:05:04.194Z,85024.00
2022-08-07T11:06:00.968Z,80960.00
2022-08-07T11:06:59.938Z,78656.00
2022-08-07T11:08:02.734Z,81216.00
2022-08-07T11:08:59.926Z,84000.00
2022-08-07T11:10:09.209Z,83968.00
2022-08-07T11:11:00.919Z,80896.00
2022-08-07T11:11:59.880Z,79360.00
2022-08-07T11:13:01.725Z,79168.00
2022-08-07T11:14:46.297Z,80448.00
2022-08-07T11:15:01.206Z,82624.00
2022-08-07T11:15:59.840Z,79552.00
2022-08-07T11:17:01.955Z,78176.00
2022-08-07T11:18:03.639Z,79680.00
2022-08-07T11:18:59.814Z,80704.00
2022-08-07T11:19:59.802Z,82304.00
2022-08-07T11:20:59.794Z,81312.00
2022-08-07T11:22:00.230Z,79744.00
2022-08-07T11:22:59.794Z,79616.00
2022-08-07T11:24:00.340Z,79008.00
2022-08-07T11:24:59.754Z,79456.00
2022-08-07T11:26:06.482Z,78752.00
2022-08-07T11:27:01.251Z,80640.00
2022-08-07T11:28:02.036Z,83168.00
2022-08-07T11:28:59.715Z,80480.00
2022-08-07T11:30:17.637Z,80928.00
2022-08-07T11:31:00.689Z,81856.00
2022-08-07T11:31:59.679Z,80960.00
2022-08-07T11:32:59.696Z,82720.00
2022-08-07T11:34:00.817Z,83296.00
2022-08-07T11:34:59.701Z,84384.00
2022-08-07T11:36:00.631Z,84000.00
2022-08-07T11:37:00.376Z,83904.00
2022-08-07T11:38:10.117Z,85440.00
2022-08-07T11:39:00.652Z,86560.00
2022-08-07T11:40:03.444Z,88576.00
2022-08-07T11:40:59.592Z,88096.00
2022-08-07T11:42:02.156Z,86016.00
2022-08-07T11:42:59.767Z,83616.00
2022-08-07T11:44:12.699Z,63744.00
2022-08-07T11:45:00.552Z,12580.00
2022-08-07T11:45:59.539Z,11228.00
2022-08-07T11:46:59.532Z,13632.00
2022-08-07T11:48:02.656Z,87072.00
2022-08-07T11:49:27.708Z,73024.00
2022-08-07T11:50:31.331Z,84064.00
2022-08-07T11:51:00.491Z,83936.00
2022-08-07T11:51:59.474Z,81248.00
2022-08-07T11:52:59.474Z,81024.00
2022-08-07T11:54:01.371Z,78304.00
2022-08-07T11:54:59.480Z,79008.00
2022-08-07T11:56:24.998Z,79616.00
2022-08-07T11:57:00.428Z,81024.00
2022-08-07T11:58:01.614Z,82496.00
2022-08-07T11:58:59.408Z,78560.00
2022-08-07T12:00:11.412Z,66656.00
2022-08-07T12:01:04.390Z,81760.00
2022-08-07T12:02:01.255Z,81856.00
2022-08-07T12:02:59.415Z,56608.00
2022-08-07T12:03:59.417Z,18144.00
2022-08-07T12:04:59.351Z,10860.00
2022-08-07T12:05:59.542Z,12484.00
2022-08-07T12:07:07.893Z,71168.00
2022-08-07T12:08:03.891Z,80224.00
2022-08-07T12:08:59.318Z,77440.00
2022-08-07T12:09:59.323Z,77664.00
2022-08-07T12:11:08.103Z,77568.00
2022-08-07T12:12:09.611Z,77984.00
2022-08-07T12:13:00.271Z,77600.00
2022-08-07T12:13:59.262Z,75872.00
2022-08-07T12:15:01.214Z,73568.00
2022-08-07T12:16:06.142Z,72800.00
2022-08-07T12:17:00.232Z,73184.00
2022-08-07T12:18:01.102Z,73216.00
2022-08-07T12:19:00.214Z,73600.00
2022-08-07T12:20:06.298Z,73888.00
2022-08-07T12:21:00.214Z,74496.00
2022-08-07T12:22:39.082Z,74688.00
2022-08-07T12:23:00.197Z,74208.00
2022-08-07T12:24:07.216Z,73344.00
2022-08-07T12:25:02.640Z,75040.00
2022-08-07T12:26:05.376Z,76192.00
2022-08-07T12:27:00.135Z,78368.00